sensor_id;sensor_type;location;lat;lon;timestamp;P1;durP1;ratioP1;P2;durP2;ratioP2
2928;SDS011;1474;51.460;7.150;2023-08-20T00:01:04;4.47;;;4.00;;
2928;SDS011;1474;51.460;7.150;2023-08-20T00:03:31;4.32;;;3.92;;
2928;SDS011;1474;51.460;7.150;2023-08-20T00:05:57;4.07;;;3.67;;
2928;SDS011;1474;51.460;7.150;2023-08-20T00:08:23;5.47;;;3.80;;
2928;SDS011;1474;51.460;7.150;2023-08-20T00:10:49;5.07;;;4.63;;
2928;SDS011;1474;51.460;7.150;2023-08-20T00:13:15;5.03;;;3.30;;
2928;SDS011;1474;51.460;7.150;2023-08-20T00:15:41;3.92;;;3.53;;
2928;SDS011;1474;51.460;7.150;2023-08-20T00:18:07;4.30;;;3.90;;
2928;SDS011;1474;51.460;7.150;2023-08-20T00:20:33;4.18;;;3.78;;
2928;SDS011;1474;51.460;7.150;2023-08-20T00:23:00;4.07;;;3.78;;
2928;SDS011;1474;51.460;7.150;2023-08-20T00:25:26;4.30;;;3.90;;
2928;SDS011;1474;51.460;7.150;2023-08-20T00:27:52;4.55;;;3.78;;
2928;SDS011;1474;51.460;7.150;2023-08-20T00:30:17;4.13;;;3.72;;
2928;SDS011;1474;51.460;7.150;2023-08-20T00:32:43;3.80;;;3.50;;
2928;SDS011;1474;51.460;7.150;2023-08-20T00:35:09;3.88;;;3.58;;
2928;SDS011;1474;51.460;7.150;2023-08-20T00:37:35;4.18;;;3.78;;
2928;SDS011;1474;51.460;7.150;2023-08-20T00:40:01;3.55;;;3.25;;
2928;SDS011;1474;51.460;7.150;2023-08-20T00:42:30;3.95;;;3.53;;
2928;SDS011;1474;51.460;7.150;2023-08-20T00:44:56;4.13;;;3.55;;
2928;SDS011;1474;51.460;7.150;2023-08-20T00:47:21;3.50;;;2.80;;
2928;SDS011;1474;51.460;7.150;2023-08-20T00:49:47;4.22;;;3.70;;
2928;SDS011;1474;51.460;7.150;2023-08-20T00:52:14;3.70;;;3.40;;
2928;SDS011;1474;51.460;7.150;2023-08-20T00:54:45;3.95;;;3.58;;
2928;SDS011;1474;51.460;7.150;2023-08-20T00:57:17;3.88;;;3.50;;
2928;SDS011;1474;51.460;7.150;2023-08-20T00:59:44;4.47;;;3.67;;
2928;SDS011;1474;51.460;7.150;2023-08-20T01:02:16;4.28;;;3.53;;
2928;SDS011;1474;51.460;7.150;2023-08-20T01:04:43;5.78;;;3.80;;
2928;SDS011;1474;51.460;7.150;2023-08-20T01:12:58;4.05;;;3.55;;
2928;SDS011;1474;51.460;7.150;2023-08-20T01:15:26;4.18;;;3.78;;
2928;SDS011;1474;51.460;7.150;2023-08-20T01:17:51;3.83;;;3.30;;
2928;SDS011;1474;51.460;7.150;2023-08-20T01:20:17;3.70;;;3.38;;
2928;SDS011;1474;51.460;7.150;2023-08-20T01:30:52;3.75;;;3.28;;
2928;SDS011;1474;51.460;7.150;2023-08-20T01:33:23;3.83;;;3.38;;
2928;SDS011;1474;51.460;7.150;2023-08-20T01:35:54;4.35;;;3.30;;
2928;SDS011;1474;51.460;7.150;2023-08-20T01:38:20;3.45;;;3.15;;
2928;SDS011;1474;51.460;7.150;2023-08-20T01:40:47;3.60;;;3.17;;
2928;SDS011;1474;51.460;7.150;2023-08-20T01:43:13;4.03;;;3.58;;
2928;SDS011;1474;51.460;7.150;2023-08-20T01:45:40;3.50;;;3.20;;
2928;SDS011;1474;51.460;7.150;2023-08-20T01:48:06;3.53;;;3.22;;
2928;SDS011;1474;51.460;7.150;2023-08-20T01:50:33;3.90;;;3.45;;
2928;SDS011;1474;51.460;7.150;2023-08-20T01:53:00;3.28;;;3.03;;
2928;SDS011;1474;51.460;7.150;2023-08-20T01:55:28;3.47;;;3.17;;
2928;SDS011;1474;51.460;7.150;2023-08-20T01:57:53;4.15;;;3.72;;
2928;SDS011;1474;51.460;7.150;2023-08-20T02:00:19;3.92;;;3.58;;
2928;SDS011;1474;51.460;7.150;2023-08-20T02:02:45;3.88;;;3.53;;
2928;SDS011;1474;51.460;7.150;2023-08-20T02:05:11;3.70;;;3.40;;
2928;SDS011;1474;51.460;7.150;2023-08-20T02:07:37;4.07;;;3.25;;
2928;SDS011;1474;51.460;7.150;2023-08-20T02:10:03;3.67;;;3.38;;
2928;SDS011;1474;51.460;7.150;2023-08-20T02:12:29;4.40;;;3.47;;
2928;SDS011;1474;51.460;7.150;2023-08-20T02:14:55;3.70;;;3.40;;
2928;SDS011;1474;51.460;7.150;2023-08-20T02:17:22;3.47;;;3.17;;
2928;SDS011;1474;51.460;7.150;2023-08-20T02:19:48;3.92;;;3.63;;
2928;SDS011;1474;51.460;7.150;2023-08-20T02:22:14;3.60;;;3.30;;
2928;SDS011;1474;51.460;7.150;2023-08-20T02:24:40;3.60;;;3.30;;
2928;SDS011;1474;51.460;7.150;2023-08-20T02:27:05;3.53;;;3.22;;
2928;SDS011;1474;51.460;7.150;2023-08-20T02:29:31;3.47;;;3.17;;
2928;SDS011;1474;51.460;7.150;2023-08-20T02:31:57;3.53;;;3.20;;
2928;SDS011;1474;51.460;7.150;2023-08-20T02:34:23;4.20;;;3.58;;
2928;SDS011;1474;51.460;7.150;2023-08-20T02:36:48;3.75;;;3.15;;
2928;SDS011;1474;51.460;7.150;2023-08-20T02:39:14;3.58;;;3.28;;
2928;SDS011;1474;51.460;7.150;2023-08-20T02:41:42;4.15;;;3.60;;
2928;SDS011;1474;51.460;7.150;2023-08-20T02:44:08;2.72;;;2.53;;
2928;SDS011;1474;51.460;7.150;2023-08-20T02:46:34;3.42;;;3.10;;
2928;SDS011;1474;51.460;7.150;2023-08-20T02:49:00;3.30;;;3.00;;
2928;SDS011;1474;51.460;7.150;2023-08-20T02:51:26;3.65;;;3.17;;
2928;SDS011;1474;51.460;7.150;2023-08-20T02:53:52;3.65;;;3.08;;
2928;SDS011;1474;51.460;7.150;2023-08-20T02:56:17;3.72;;;3.35;;
2928;SDS011;1474;51.460;7.150;2023-08-20T02:58:43;3.40;;;3.10;;
2928;SDS011;1474;51.460;7.150;2023-08-20T03:01:17;3.80;;;3.38;;
2928;SDS011;1474;51.460;7.150;2023-08-20T03:03:45;3.35;;;3.05;;
2928;SDS011;1474;51.460;7.150;2023-08-20T03:06:11;3.30;;;2.95;;
2928;SDS011;1474;51.460;7.150;2023-08-20T03:08:37;3.47;;;3.17;;
2928;SDS011;1474;51.460;7.150;2023-08-20T03:11:03;3.22;;;2.92;;
2928;SDS011;1474;51.460;7.150;2023-08-20T03:13:29;3.67;;;3.20;;
2928;SDS011;1474;51.460;7.150;2023-08-20T03:15:55;3.83;;;3.28;;
2928;SDS011;1474;51.460;7.150;2023-08-20T03:18:20;3.70;;;3.35;;
2928;SDS011;1474;51.460;7.150;2023-08-20T03:20:46;3.33;;;3.03;;
2928;SDS011;1474;51.460;7.150;2023-08-20T03:23:12;3.53;;;3.17;;
2928;SDS011;1474;51.460;7.150;2023-08-20T03:25:38;3.25;;;2.95;;
2928;SDS011;1474;51.460;7.150;2023-08-20T03:28:04;3.92;;;3.53;;
2928;SDS011;1474;51.460;7.150;2023-08-20T03:30:30;3.38;;;3.00;;
2928;SDS011;1474;51.460;7.150;2023-08-20T03:32:56;3.40;;;2.95;;
2928;SDS011;1474;51.460;7.150;2023-08-20T03:35:22;3.60;;;3.08;;
2928;SDS011;1474;51.460;7.150;2023-08-20T03:37:48;3.55;;;3.25;;
2928;SDS011;1474;51.460;7.150;2023-08-20T03:40:14;3.50;;;3.20;;
2928;SDS011;1474;51.460;7.150;2023-08-20T03:42:40;3.20;;;2.90;;
2928;SDS011;1474;51.460;7.150;2023-08-20T03:45:06;3.42;;;3.00;;
2928;SDS011;1474;51.460;7.150;2023-08-20T03:47:32;3.53;;;2.97;;
2928;SDS011;1474;51.460;7.150;2023-08-20T03:49:58;3.10;;;2.80;;
2928;SDS011;1474;51.460;7.150;2023-08-20T03:52:23;3.72;;;3.17;;
2928;SDS011;1474;51.460;7.150;2023-08-20T03:54:49;3.60;;;3.28;;
2928;SDS011;1474;51.460;7.150;2023-08-20T03:57:15;3.10;;;2.78;;
2928;SDS011;1474;51.460;7.150;2023-08-20T03:59:41;2.90;;;2.70;;
2928;SDS011;1474;51.460;7.150;2023-08-20T04:02:07;3.22;;;2.92;;
2928;SDS011;1474;51.460;7.150;2023-08-20T04:04:33;2.83;;;2.63;;
2928;SDS011;1474;51.460;7.150;2023-08-20T04:06:58;3.10;;;2.80;;
2928;SDS011;1474;51.460;7.150;2023-08-20T04:09:24;4.10;;;3.38;;
2928;SDS011;1474;51.460;7.150;2023-08-20T04:11:50;3.53;;;3.25;;
2928;SDS011;1474;51.460;7.150;2023-08-20T04:14:16;3.30;;;3.00;;
2928;SDS011;1474;51.460;7.150;2023-08-20T04:16:41;3.20;;;2.90;;
2928;SDS011;1474;51.460;7.150;2023-08-20T04:19:07;3.30;;;3.03;;
2928;SDS011;1474;51.460;7.150;2023-08-20T04:21:33;3.35;;;3.10;;
2928;SDS011;1474;51.460;7.150;2023-08-20T04:23:58;3.20;;;2.90;;
2928;SDS011;1474;51.460;7.150;2023-08-20T04:26:24;3.05;;;2.75;;
2928;SDS011;1474;51.460;7.150;2023-08-20T04:28:50;3.38;;;2.90;;
2928;SDS011;1474;51.460;7.150;2023-08-20T04:31:16;3.17;;;2.88;;
2928;SDS011;1474;51.460;7.150;2023-08-20T04:33:41;3.15;;;2.85;;
2928;SDS011;1474;51.460;7.150;2023-08-20T04:36:07;3.65;;;3.30;;
2928;SDS011;1474;51.460;7.150;2023-08-20T04:38:33;3.08;;;2.78;;
2928;SDS011;1474;51.460;7.150;2023-08-20T04:40:58;2.72;;;2.53;;
2928;SDS011;1474;51.460;7.150;2023-08-20T04:43:24;2.92;;;2.70;;
2928;SDS011;1474;51.460;7.150;2023-08-20T04:45:50;3.65;;;3.35;;
2928;SDS011;1474;51.460;7.150;2023-08-20T04:48:16;3.20;;;2.90;;
2928;SDS011;1474;51.460;7.150;2023-08-20T04:50:41;3.30;;;3.00;;
2928;SDS011;1474;51.460;7.150;2023-08-20T04:53:07;3.05;;;2.80;;
2928;SDS011;1474;51.460;7.150;2023-08-20T04:55:33;3.35;;;2.90;;
2928;SDS011;1474;51.460;7.150;2023-08-20T04:57:58;4.13;;;3.08;;
2928;SDS011;1474;51.460;7.150;2023-08-20T05:00:24;3.05;;;2.75;;
2928;SDS011;1474;51.460;7.150;2023-08-20T05:02:51;3.20;;;2.90;;
2928;SDS011;1474;51.460;7.150;2023-08-20T05:05:17;3.33;;;3.03;;
2928;SDS011;1474;51.460;7.150;2023-08-20T05:07:43;3.33;;;3.03;;
2928;SDS011;1474;51.460;7.150;2023-08-20T05:10:09;3.25;;;2.80;;
2928;SDS011;1474;51.460;7.150;2023-08-20T05:12:35;3.15;;;2.85;;
2928;SDS011;1474;51.460;7.150;2023-08-20T05:15:02;3.30;;;3.00;;
2928;SDS011;1474;51.460;7.150;2023-08-20T05:17:28;3.60;;;3.30;;
2928;SDS011;1474;51.460;7.150;2023-08-20T05:19:54;2.80;;;2.60;;
2928;SDS011;1474;51.460;7.150;2023-08-20T05:22:19;3.40;;;3.10;;
2928;SDS011;1474;51.460;7.150;2023-08-20T05:24:45;3.30;;;2.88;;
2928;SDS011;1474;51.460;7.150;2023-08-20T05:27:14;2.92;;;2.72;;
2928;SDS011;1474;51.460;7.150;2023-08-20T05:29:44;3.00;;;2.70;;
2928;SDS011;1474;51.460;7.150;2023-08-20T05:32:11;3.47;;;3.13;;
2928;SDS011;1474;51.460;7.150;2023-08-20T05:34:37;2.90;;;2.70;;
2928;SDS011;1474;51.460;7.150;2023-08-20T05:37:02;2.78;;;2.58;;
2928;SDS011;1474;51.460;7.150;2023-08-20T05:39:29;3.55;;;3.25;;
2928;SDS011;1474;51.460;7.150;2023-08-20T05:42:01;3.35;;;3.05;;
2928;SDS011;1474;51.460;7.150;2023-08-20T05:44:27;3.47;;;3.17;;
2928;SDS011;1474;51.460;7.150;2023-08-20T05:46:53;3.33;;;2.90;;
2928;SDS011;1474;51.460;7.150;2023-08-20T05:49:18;2.80;;;2.53;;
2928;SDS011;1474;51.460;7.150;2023-08-20T05:51:45;3.33;;;2.95;;
2928;SDS011;1474;51.460;7.150;2023-08-20T05:54:10;3.20;;;2.90;;
2928;SDS011;1474;51.460;7.150;2023-08-20T05:56:37;2.92;;;2.70;;
2928;SDS011;1474;51.460;7.150;2023-08-20T05:59:03;2.60;;;2.40;;
2928;SDS011;1474;51.460;7.150;2023-08-20T06:01:29;2.75;;;2.50;;
2928;SDS011;1474;51.460;7.150;2023-08-20T06:03:54;2.92;;;2.50;;
2928;SDS011;1474;51.460;7.150;2023-08-20T06:06:21;3.10;;;2.80;;
2928;SDS011;1474;51.460;7.150;2023-08-20T06:08:47;3.50;;;3.20;;
2928;SDS011;1474;51.460;7.150;2023-08-20T06:11:13;2.80;;;2.60;;
2928;SDS011;1474;51.460;7.150;2023-08-20T06:13:38;3.50;;;3.00;;
2928;SDS011;1474;51.460;7.150;2023-08-20T06:16:04;3.05;;;2.72;;
2928;SDS011;1474;51.460;7.150;2023-08-20T06:18:31;3.20;;;2.90;;
2928;SDS011;1474;51.460;7.150;2023-08-20T06:20:57;3.17;;;2.92;;
2928;SDS011;1474;51.460;7.150;2023-08-20T06:23:23;2.80;;;2.60;;
2928;SDS011;1474;51.460;7.150;2023-08-20T06:25:50;2.83;;;2.63;;
2928;SDS011;1474;51.460;7.150;2023-08-20T06:28:16;2.80;;;2.60;;
2928;SDS011;1474;51.460;7.150;2023-08-20T06:30:43;3.60;;;2.83;;
2928;SDS011;1474;51.460;7.150;2023-08-20T06:33:10;4.82;;;2.97;;
2928;SDS011;1474;51.460;7.150;2023-08-20T06:35:36;3.30;;;2.92;;
2928;SDS011;1474;51.460;7.150;2023-08-20T06:38:03;4.63;;;2.70;;
2928;SDS011;1474;51.460;7.150;2023-08-20T06:40:29;5.32;;;2.90;;
2928;SDS011;1474;51.460;7.150;2023-08-20T06:42:55;3.13;;;2.83;;
2928;SDS011;1474;51.460;7.150;2023-08-20T06:45:21;3.72;;;2.78;;
2928;SDS011;1474;51.460;7.150;2023-08-20T06:47:47;4.45;;;2.95;;
2928;SDS011;1474;51.460;7.150;2023-08-20T06:50:13;4.10;;;3.35;;
2928;SDS011;1474;51.460;7.150;2023-08-20T06:52:39;3.63;;;3.00;;
2928;SDS011;1474;51.460;7.150;2023-08-20T06:55:05;4.03;;;2.85;;
2928;SDS011;1474;51.460;7.150;2023-08-20T06:57:31;3.90;;;3.15;;
2928;SDS011;1474;51.460;7.150;2023-08-20T06:59:56;3.92;;;2.60;;
2928;SDS011;1474;51.460;7.150;2023-08-20T07:02:22;3.25;;;2.50;;
2928;SDS011;1474;51.460;7.150;2023-08-20T07:04:48;2.88;;;2.65;;
2928;SDS011;1474;51.460;7.150;2023-08-20T07:07:14;3.72;;;2.88;;
2928;SDS011;1474;51.460;7.150;2023-08-20T07:09:40;3.42;;;3.10;;
2928;SDS011;1474;51.460;7.150;2023-08-20T07:12:06;3.17;;;2.83;;
2928;SDS011;1474;51.460;7.150;2023-08-20T07:14:32;4.10;;;3.47;;
2928;SDS011;1474;51.460;7.150;2023-08-20T07:16:58;3.05;;;2.70;;
2928;SDS011;1474;51.460;7.150;2023-08-20T07:19:27;5.40;;;2.80;;
2928;SDS011;1474;51.460;7.150;2023-08-20T07:21:54;2.70;;;2.50;;
2928;SDS011;1474;51.460;7.150;2023-08-20T07:24:20;2.92;;;2.33;;
2928;SDS011;1474;51.460;7.150;2023-08-20T07:26:50;3.60;;;2.83;;
2928;SDS011;1474;51.460;7.150;2023-08-20T07:29:17;3.22;;;2.92;;
2928;SDS011;1474;51.460;7.150;2023-08-20T07:31:43;3.03;;;2.38;;
2928;SDS011;1474;51.460;7.150;2023-08-20T07:34:08;3.10;;;2.75;;
2928;SDS011;1474;51.460;7.150;2023-08-20T07:36:34;3.03;;;2.72;;
2928;SDS011;1474;51.460;7.150;2023-08-20T07:39:00;3.13;;;2.63;;
2928;SDS011;1474;51.460;7.150;2023-08-20T07:41:26;3.25;;;2.95;;
2928;SDS011;1474;51.460;7.150;2023-08-20T07:43:52;4.15;;;3.03;;
2928;SDS011;1474;51.460;7.150;2023-08-20T07:46:19;4.03;;;3.17;;
2928;SDS011;1474;51.460;7.150;2023-08-20T07:48:44;4.10;;;2.95;;
2928;SDS011;1474;51.460;7.150;2023-08-20T07:51:11;4.55;;;2.67;;
2928;SDS011;1474;51.460;7.150;2023-08-20T07:53:36;3.80;;;3.40;;
2928;SDS011;1474;51.460;7.150;2023-08-20T07:56:02;4.53;;;3.13;;
2928;SDS011;1474;51.460;7.150;2023-08-20T07:58:28;4.00;;;3.60;;
2928;SDS011;1474;51.460;7.150;2023-08-20T08:00:55;4.88;;;3.53;;
2928;SDS011;1474;51.460;7.150;2023-08-20T08:03:21;5.32;;;3.65;;
2928;SDS011;1474;51.460;7.150;2023-08-20T08:05:47;4.80;;;4.05;;
2928;SDS011;1474;51.460;7.150;2023-08-20T08:08:17;7.07;;;3.80;;
2928;SDS011;1474;51.460;7.150;2023-08-20T08:10:44;5.65;;;3.53;;
2928;SDS011;1474;51.460;7.150;2023-08-20T08:13:18;6.13;;;4.47;;
2928;SDS011;1474;51.460;7.150;2023-08-20T08:15:46;5.80;;;4.13;;
2928;SDS011;1474;51.460;7.150;2023-08-20T08:18:13;5.03;;;3.95;;
2928;SDS011;1474;51.460;7.150;2023-08-20T08:20:38;4.65;;;4.20;;
2928;SDS011;1474;51.460;7.150;2023-08-20T08:23:04;5.82;;;4.45;;
2928;SDS011;1474;51.460;7.150;2023-08-20T08:25:30;5.15;;;4.47;;
2928;SDS011;1474;51.460;7.150;2023-08-20T08:27:56;4.78;;;4.32;;
2928;SDS011;1474;51.460;7.150;2023-08-20T08:30:22;5.65;;;4.70;;
2928;SDS011;1474;51.460;7.150;2023-08-20T08:32:48;5.10;;;4.70;;
2928;SDS011;1474;51.460;7.150;2023-08-20T08:35:13;4.78;;;4.18;;
2928;SDS011;1474;51.460;7.150;2023-08-20T08:37:39;4.82;;;4.20;;
2928;SDS011;1474;51.460;7.150;2023-08-20T08:40:05;4.93;;;4.30;;
2928;SDS011;1474;51.460;7.150;2023-08-20T08:42:32;5.38;;;4.43;;
2928;SDS011;1474;51.460;7.150;2023-08-20T08:45:01;9.18;;;4.32;;
2928;SDS011;1474;51.460;7.150;2023-08-20T08:47:29;4.18;;;3.78;;
2928;SDS011;1474;51.460;7.150;2023-08-20T08:49:55;7.22;;;4.65;;
2928;SDS011;1474;51.460;7.150;2023-08-20T08:52:24;4.60;;;4.20;;
2928;SDS011;1474;51.460;7.150;2023-08-20T08:54:51;5.93;;;4.57;;
2928;SDS011;1474;51.460;7.150;2023-08-20T08:57:18;5.35;;;4.10;;
2928;SDS011;1474;51.460;7.150;2023-08-20T08:59:44;6.13;;;4.60;;
2928;SDS011;1474;51.460;7.150;2023-08-20T09:02:10;5.38;;;4.38;;
2928;SDS011;1474;51.460;7.150;2023-08-20T09:04:38;4.93;;;4.28;;
2928;SDS011;1474;51.460;7.150;2023-08-20T09:07:05;7.13;;;4.57;;
2928;SDS011;1474;51.460;7.150;2023-08-20T09:09:43;4.65;;;3.92;;
2928;SDS011;1474;51.460;7.150;2023-08-20T09:14:43;4.68;;;4.28;;
2928;SDS011;1474;51.460;7.150;2023-08-20T09:17:15;4.50;;;4.10;;
2928;SDS011;1474;51.460;7.150;2023-08-20T09:19:42;4.28;;;3.88;;
2928;SDS011;1474;51.460;7.150;2023-08-20T09:22:13;4.18;;;3.78;;
2928;SDS011;1474;51.460;7.150;2023-08-20T09:24:46;5.50;;;4.78;;
2928;SDS011;1474;51.460;7.150;2023-08-20T09:27:19;4.03;;;3.63;;
2928;SDS011;1474;51.460;7.150;2023-08-20T09:29:45;5.78;;;4.13;;
2928;SDS011;1474;51.460;7.150;2023-08-20T09:32:26;4.50;;;3.70;;
2928;SDS011;1474;51.460;7.150;2023-08-20T09:34:53;4.53;;;3.88;;
2928;SDS011;1474;51.460;7.150;2023-08-20T09:37:21;5.93;;;4.38;;
2928;SDS011;1474;51.460;7.150;2023-08-20T09:39:49;4.32;;;3.92;;
2928;SDS011;1474;51.460;7.150;2023-08-20T09:42:16;5.22;;;3.95;;
2928;SDS011;1474;51.460;7.150;2023-08-20T09:44:44;5.85;;;3.75;;
2928;SDS011;1474;51.460;7.150;2023-08-20T09:47:12;4.50;;;3.85;;
2928;SDS011;1474;51.460;7.150;2023-08-20T09:49:40;6.47;;;4.18;;
2928;SDS011;1474;51.460;7.150;2023-08-20T09:52:21;5.18;;;4.30;;
2928;SDS011;1474;51.460;7.150;2023-08-20T09:55:08;5.68;;;3.78;;
2928;SDS011;1474;51.460;7.150;2023-08-20T09:57:47;4.53;;;3.65;;
2928;SDS011;1474;51.460;7.150;2023-08-20T10:00:13;4.43;;;3.83;;
2928;SDS011;1474;51.460;7.150;2023-08-20T10:02:43;6.05;;;4.07;;
2928;SDS011;1474;51.460;7.150;2023-08-20T10:05:10;4.85;;;4.38;;
2928;SDS011;1474;51.460;7.150;2023-08-20T10:07:37;4.32;;;3.92;;
2928;SDS011;1474;51.460;7.150;2023-08-20T10:10:04;4.50;;;4.10;;
2928;SDS011;1474;51.460;7.150;2023-08-20T10:12:34;4.55;;;3.78;;
2928;SDS011;1474;51.460;7.150;2023-08-20T10:15:01;4.88;;;3.72;;
2928;SDS011;1474;51.460;7.150;2023-08-20T10:17:29;4.78;;;3.97;;
2928;SDS011;1474;51.460;7.150;2023-08-20T10:19:57;4.80;;;3.70;;
2928;SDS011;1474;51.460;7.150;2023-08-20T10:22:39;3.55;;;3.25;;
2928;SDS011;1474;51.460;7.150;2023-08-20T10:25:07;4.10;;;3.70;;
2928;SDS011;1474;51.460;7.150;2023-08-20T10:27:47;5.25;;;3.85;;
2928;SDS011;1474;51.460;7.150;2023-08-20T10:30:17;4.55;;;4.00;;
2928;SDS011;1474;51.460;7.150;2023-08-20T10:32:53;3.92;;;3.53;;
2928;SDS011;1474;51.460;7.150;2023-08-20T10:35:23;4.45;;;3.72;;
2928;SDS011;1474;51.460;7.150;2023-08-20T10:43:28;5.68;;;3.42;;
2928;SDS011;1474;51.460;7.150;2023-08-20T10:48:35;4.15;;;3.50;;
2928;SDS011;1474;51.460;7.150;2023-08-20T10:51:15;4.20;;;3.63;;
2928;SDS011;1474;51.460;7.150;2023-08-20T10:57:03;3.30;;;3.00;;
2928;SDS011;1474;51.460;7.150;2023-08-20T10:59:27;3.58;;;3.28;;
2928;SDS011;1474;51.460;7.150;2023-08-20T11:01:57;4.07;;;3.50;;
2928;SDS011;1474;51.460;7.150;2023-08-20T11:04:25;3.42;;;3.13;;
2928;SDS011;1474;51.460;7.150;2023-08-20T11:06:59;4.25;;;3.58;;
2928;SDS011;1474;51.460;7.150;2023-08-20T11:09:29;3.63;;;3.15;;
2928;SDS011;1474;51.460;7.150;2023-08-20T11:11:56;4.15;;;3.28;;
2928;SDS011;1474;51.460;7.150;2023-08-20T11:14:23;3.67;;;3.33;;
2928;SDS011;1474;51.460;7.150;2023-08-20T11:16:49;5.75;;;4.43;;
2928;SDS011;1474;51.460;7.150;2023-08-20T11:19:19;3.50;;;3.20;;
2928;SDS011;1474;51.460;7.150;2023-08-20T11:21:47;4.00;;;3.60;;
2928;SDS011;1474;51.460;7.150;2023-08-20T11:24:14;3.78;;;3.42;;
2928;SDS011;1474;51.460;7.150;2023-08-20T11:26:40;4.20;;;3.75;;
2928;SDS011;1474;51.460;7.150;2023-08-20T11:29:08;3.88;;;3.47;;
2928;SDS011;1474;51.460;7.150;2023-08-20T11:31:37;4.13;;;3.75;;
2928;SDS011;1474;51.460;7.150;2023-08-20T11:34:04;4.13;;;3.67;;
2928;SDS011;1474;51.460;7.150;2023-08-20T11:36:31;5.55;;;3.70;;
2928;SDS011;1474;51.460;7.150;2023-08-20T11:38:57;4.75;;;3.83;;
2928;SDS011;1474;51.460;7.150;2023-08-20T11:41:23;4.00;;;3.70;;
2928;SDS011;1474;51.460;7.150;2023-08-20T11:43:50;4.20;;;3.85;;
2928;SDS011;1474;51.460;7.150;2023-08-20T11:46:19;4.10;;;3.70;;
2928;SDS011;1474;51.460;7.150;2023-08-20T11:49:05;3.95;;;3.60;;
2928;SDS011;1474;51.460;7.150;2023-08-20T11:51:40;4.88;;;3.92;;
2928;SDS011;1474;51.460;7.150;2023-08-20T11:54:11;3.95;;;3.58;;
2928;SDS011;1474;51.460;7.150;2023-08-20T11:56:51;4.03;;;3.72;;
2928;SDS011;1474;51.460;7.150;2023-08-20T11:59:18;4.05;;;3.65;;
2928;SDS011;1474;51.460;7.150;2023-08-20T12:01:50;4.78;;;4.30;;
2928;SDS011;1474;51.460;7.150;2023-08-20T12:04:17;4.15;;;3.78;;
2928;SDS011;1474;51.460;7.150;2023-08-20T12:06:43;4.70;;;4.30;;
2928;SDS011;1474;51.460;7.150;2023-08-20T12:09:21;4.53;;;4.13;;
2928;SDS011;1474;51.460;7.150;2023-08-20T12:11:52;4.63;;;4.13;;
2928;SDS011;1474;51.460;7.150;2023-08-20T12:14:21;4.68;;;4.28;;
2928;SDS011;1474;51.460;7.150;2023-08-20T12:16:47;5.28;;;4.22;;
2928;SDS011;1474;51.460;7.150;2023-08-20T12:19:15;5.05;;;4.47;;
2928;SDS011;1474;51.460;7.150;2023-08-20T12:21:42;4.68;;;4.28;;
2928;SDS011;1474;51.460;7.150;2023-08-20T12:24:11;4.85;;;4.35;;
2928;SDS011;1474;51.460;7.150;2023-08-20T12:26:37;4.55;;;4.15;;
2928;SDS011;1474;51.460;7.150;2023-08-20T12:29:04;5.32;;;4.82;;
2928;SDS011;1474;51.460;7.150;2023-08-20T12:31:31;5.28;;;4.88;;
2928;SDS011;1474;51.460;7.150;2023-08-20T12:33:58;4.65;;;4.20;;
2928;SDS011;1474;51.460;7.150;2023-08-20T12:36:25;4.60;;;4.20;;
2928;SDS011;1474;51.460;7.150;2023-08-20T12:38:50;4.50;;;4.10;;
2928;SDS011;1474;51.460;7.150;2023-08-20T12:41:18;4.53;;;4.13;;
2928;SDS011;1474;51.460;7.150;2023-08-20T12:43:44;4.30;;;3.92;;
2928;SDS011;1474;51.460;7.150;2023-08-20T12:46:10;5.05;;;4.60;;
2928;SDS011;1474;51.460;7.150;2023-08-20T12:48:38;4.53;;;4.13;;
2928;SDS011;1474;51.460;7.150;2023-08-20T12:51:04;5.00;;;4.60;;
2928;SDS011;1474;51.460;7.150;2023-08-20T12:53:31;4.95;;;4.53;;
2928;SDS011;1474;51.460;7.150;2023-08-20T12:55:57;4.20;;;3.80;;
2928;SDS011;1474;51.460;7.150;2023-08-20T12:58:23;4.80;;;4.32;;
2928;SDS011;1474;51.460;7.150;2023-08-20T13:00:49;5.43;;;4.93;;
2928;SDS011;1474;51.460;7.150;2023-08-20T13:03:16;4.90;;;4.50;;
2928;SDS011;1474;51.460;7.150;2023-08-20T13:05:44;4.38;;;4.07;;
2928;SDS011;1474;51.460;7.150;2023-08-20T13:08:10;5.20;;;4.57;;
2928;SDS011;1474;51.460;7.150;2023-08-20T13:10:38;4.85;;;4.45;;
2928;SDS011;1474;51.460;7.150;2023-08-20T13:13:15;4.82;;;4.20;;
2928;SDS011;1474;51.460;7.150;2023-08-20T13:15:45;5.78;;;5.28;;
2928;SDS011;1474;51.460;7.150;2023-08-20T13:18:12;4.57;;;4.18;;
2928;SDS011;1474;51.460;7.150;2023-08-20T13:20:39;5.60;;;4.97;;
2928;SDS011;1474;51.460;7.150;2023-08-20T13:23:05;4.95;;;4.55;;
2928;SDS011;1474;51.460;7.150;2023-08-20T13:25:31;5.53;;;5.03;;
2928;SDS011;1474;51.460;7.150;2023-08-20T13:27:56;5.20;;;4.78;;
2928;SDS011;1474;51.460;7.150;2023-08-20T13:30:22;4.78;;;4.38;;
2928;SDS011;1474;51.460;7.150;2023-08-20T13:32:48;5.03;;;4.63;;
2928;SDS011;1474;51.460;7.150;2023-08-20T13:35:14;5.30;;;4.80;;
2928;SDS011;1474;51.460;7.150;2023-08-20T13:37:40;4.68;;;4.28;;
2928;SDS011;1474;51.460;7.150;2023-08-20T13:40:06;5.10;;;4.55;;
2928;SDS011;1474;51.460;7.150;2023-08-20T13:42:34;5.28;;;4.88;;
2928;SDS011;1474;51.460;7.150;2023-08-20T13:45:00;4.70;;;4.30;;
2928;SDS011;1474;51.460;7.150;2023-08-20T13:47:26;5.05;;;4.60;;
2928;SDS011;1474;51.460;7.150;2023-08-20T13:49:52;5.28;;;4.80;;
2928;SDS011;1474;51.460;7.150;2023-08-20T13:52:18;5.43;;;4.95;;
2928;SDS011;1474;51.460;7.150;2023-08-20T13:54:43;5.60;;;5.10;;
2928;SDS011;1474;51.460;7.150;2023-08-20T13:57:09;5.72;;;5.22;;
2928;SDS011;1474;51.460;7.150;2023-08-20T13:59:35;5.28;;;4.80;;
2928;SDS011;1474;51.460;7.150;2023-08-20T14:02:01;4.85;;;4.45;;
2928;SDS011;1474;51.460;7.150;2023-08-20T14:04:27;5.07;;;4.57;;
2928;SDS011;1474;51.460;7.150;2023-08-20T14:06:52;4.43;;;4.05;;
2928;SDS011;1474;51.460;7.150;2023-08-20T14:09:19;5.00;;;4.50;;
2928;SDS011;1474;51.460;7.150;2023-08-20T14:11:47;5.88;;;5.30;;
2928;SDS011;1474;51.460;7.150;2023-08-20T14:14:13;5.82;;;5.32;;
2928;SDS011;1474;51.460;7.150;2023-08-20T14:16:39;5.50;;;5.00;;
2928;SDS011;1474;51.460;7.150;2023-08-20T14:19:05;4.78;;;4.38;;
2928;SDS011;1474;51.460;7.150;2023-08-20T14:21:31;5.30;;;4.80;;
2928;SDS011;1474;51.460;7.150;2023-08-20T14:23:57;4.85;;;4.45;;
2928;SDS011;1474;51.460;7.150;2023-08-20T14:26:23;4.85;;;4.45;;
2928;SDS011;1474;51.460;7.150;2023-08-20T14:28:48;5.95;;;5.07;;
2928;SDS011;1474;51.460;7.150;2023-08-20T14:31:14;5.13;;;4.72;;
2928;SDS011;1474;51.460;7.150;2023-08-20T14:33:40;5.00;;;4.60;;
2928;SDS011;1474;51.460;7.150;2023-08-20T14:36:06;4.95;;;4.55;;
2928;SDS011;1474;51.460;7.150;2023-08-20T14:38:32;5.57;;;5.13;;
2928;SDS011;1474;51.460;7.150;2023-08-20T14:41:00;5.40;;;4.90;;
2928;SDS011;1474;51.460;7.150;2023-08-20T14:43:27;5.30;;;4.80;;
2928;SDS011;1474;51.460;7.150;2023-08-20T14:45:54;5.32;;;4.85;;
2928;SDS011;1474;51.460;7.150;2023-08-20T14:48:24;5.10;;;4.55;;
2928;SDS011;1474;51.460;7.150;2023-08-20T14:50:50;5.28;;;4.78;;
2928;SDS011;1474;51.460;7.150;2023-08-20T14:53:16;4.90;;;4.50;;
2928;SDS011;1474;51.460;7.150;2023-08-20T14:55:43;5.10;;;4.70;;
2928;SDS011;1474;51.460;7.150;2023-08-20T14:58:10;4.65;;;4.25;;
2928;SDS011;1474;51.460;7.150;2023-08-20T15:00:36;5.47;;;5.07;;
2928;SDS011;1474;51.460;7.150;2023-08-20T15:03:02;4.90;;;4.50;;
2928;SDS011;1474;51.460;7.150;2023-08-20T15:05:29;4.82;;;4.38;;
2928;SDS011;1474;51.460;7.150;2023-08-20T15:07:55;4.93;;;4.53;;
2928;SDS011;1474;51.460;7.150;2023-08-20T15:10:21;5.40;;;4.90;;
2928;SDS011;1474;51.460;7.150;2023-08-20T15:12:47;4.85;;;4.45;;
2928;SDS011;1474;51.460;7.150;2023-08-20T15:15:13;5.18;;;4.78;;
2928;SDS011;1474;51.460;7.150;2023-08-20T15:17:38;4.82;;;4.43;;
2928;SDS011;1474;51.460;7.150;2023-08-20T15:20:05;5.55;;;5.10;;
2928;SDS011;1474;51.460;7.150;2023-08-20T15:22:35;4.93;;;4.53;;
2928;SDS011;1474;51.460;7.150;2023-08-20T15:25:02;5.30;;;4.80;;
2928;SDS011;1474;51.460;7.150;2023-08-20T15:27:32;4.93;;;4.53;;
2928;SDS011;1474;51.460;7.150;2023-08-20T15:29:59;5.13;;;4.72;;
2928;SDS011;1474;51.460;7.150;2023-08-20T15:32:25;5.03;;;4.63;;
2928;SDS011;1474;51.460;7.150;2023-08-20T15:34:53;4.78;;;4.38;;
2928;SDS011;1474;51.460;7.150;2023-08-20T15:37:19;4.82;;;4.43;;
2928;SDS011;1474;51.460;7.150;2023-08-20T15:39:45;5.20;;;4.80;;
2928;SDS011;1474;51.460;7.150;2023-08-20T15:42:11;4.95;;;4.50;;